Time;durP1;ratioP1;P1;durP2;ratioP2;P2;SDS_P1;SDS_P2;PMS_P1;PMS_P2;Temp;Humidity;BMP_temperature;BMP_pressure;BME280_temperature;BME280_humidity;BME280_pressure;Samples;Min_cycle;Max_cycle;Signal;HPM_P1;HPM_P2
2023/04/15 00:01:44;;;;;;;5.43;2.70;;;8.00;74.70;;;;;;6089403;23;20407;-74
2023/04/15 00:04:10;;;;;;;6.80;2.43;;;8.00;76.00;;;;;;6088167;23;20960;-75
2023/04/15 00:06:36;;;;;;;4.63;2.20;;;8.10;77.00;;;;;;6064899;23;20428;-73
2023/04/15 00:09:02;;;;;;;5.10;3.23;;;8.00;77.40;;;;;;6090330;23;20453;-73
2023/04/15 00:11:29;;;;;;;5.77;2.97;;;8.10;78.70;;;;;;6089720;23;20415;-73
2023/04/15 00:13:55;;;;;;;5.10;3.03;;;8.00;79.10;;;;;;6065163;23;20428;-74
2023/04/15 00:16:20;;;;;;;6.13;3.30;;;8.00;80.20;;;;;;6093987;23;20385;-73
2023/04/15 00:18:46;;;;;;;5.00;2.67;;;8.00;81.30;;;;;;6099398;23;20156;-74
2023/04/15 00:21:12;;;;;;;4.67;2.63;;;8.00;82.10;;;;;;6098545;23;20160;-74
2023/04/15 00:23:44;;;;;;;4.40;3.00;;;7.90;82.40;;;;;;6076618;23;20188;-75
2023/04/15 00:26:09;;;;;;;6.27;2.63;;;7.90;84.10;;;;;;6096800;23;20383;-73
2023/04/15 00:28:36;;;;;;;3.33;2.23;;;7.90;85.00;;;;;;6092734;23;20518;-74
2023/04/15 00:31:02;;;;;;;3.97;2.20;;;7.90;85.90;;;;;;6093064;23;20462;-72
2023/04/15 00:33:28;;;;;;;2.23;1.67;;;7.80;86.20;;;;;;6092809;23;20793;-73
2023/04/15 00:35:54;;;;;;;3.73;2.20;;;7.80;87.30;;;;;;6119459;23;20152;-71
2023/04/15 00:38:20;;;;;;;10.97;3.73;;;7.70;88.60;;;;;;6122099;23;20447;-73
2023/04/15 00:40:48;;;;;;;3.60;2.60;;;7.70;90.00;;;;;;6097737;23;20179;-75
2023/04/15 00:43:16;;;;;;;4.03;2.17;;;7.60;90.40;;;;;;6117853;23;20184;-72
2023/04/15 00:45:43;;;;;;;3.40;2.30;;;7.60;91.00;;;;;;6152475;23;20372;-71
2023/04/15 00:48:10;;;;;;;6.40;3.50;;;7.60;91.10;;;;;;6092805;23;20400;-72
2023/04/15 00:50:36;;;;;;;3.20;1.93;;;7.50;91.60;;;;;;6156393;23;20415;-71
2023/04/15 00:53:01;;;;;;;4.43;2.03;;;7.50;92.10;;;;;;6095118;23;20415;-72
2023/04/15 00:55:27;;;;;;;3.63;2.17;;;7.40;92.20;;;;;;6118934;23;20395;-71
2023/04/15 00:57:53;;;;;;;2.73;1.63;;;7.40;92.70;;;;;;6129364;23;20435;-73
2023/04/15 01:00:19;;;;;;;4.70;2.43;;;7.30;92.80;;;;;;6116919;23;20140;-73
2023/04/15 01:03:06;;;;;;;2.47;2.00;;;7.20;92.90;;;;;;6125357;23;20399;-75
2023/04/15 01:05:33;;;;;;;5.53;2.23;;;7.20;93.10;;;;;;6117657;23;20407;-75
2023/04/15 01:07:58;;;;;;;3.50;2.70;;;7.10;93.50;;;;;;6092254;23;20383;-72
2023/04/15 01:10:26;;;;;;;4.63;2.43;;;7.10;93.70;;;;;;6142152;23;20383;-71
2023/04/15 01:12:51;;;;;;;5.50;2.40;;;7.10;94.10;;;;;;6142954;23;20435;-72
2023/04/15 01:15:17;;;;;;;5.00;2.37;;;7.00;94.40;;;;;;6095587;23;20855;-73
2023/04/15 01:17:43;;;;;;;4.20;2.10;;;7.00;94.70;;;;;;6094677;23;20152;-72
2023/04/15 01:20:10;;;;;;;3.80;1.90;;;6.90;95.20;;;;;;6091235;23;20152;-69
2023/04/15 01:22:37;;;;;;;3.23;1.60;;;6.80;95.60;;;;;;6114414;23;20407;-71
2023/04/15 01:25:13;;;;;;;3.90;1.80;;;6.80;95.90;;;;;;6151698;23;20380;-73
2023/04/15 01:27:41;;;;;;;8.73;2.90;;;6.80;95.80;;;;;;6092320;23;20407;-71
2023/04/15 01:30:08;;;;;;;2.80;2.20;;;6.80;96.00;;;;;;6140669;23;20401;-73
2023/04/15 01:32:35;;;;;;;3.40;2.20;;;6.80;96.20;;;;;;6115836;23;20427;-72
2023/04/15 01:35:01;;;;;;;6.70;2.40;;;6.80;96.40;;;;;;6091319;23;20450;-70
2023/04/15 01:37:26;;;;;;;3.23;2.13;;;6.80;96.60;;;;;;6091766;23;20375;-73
2023/04/15 01:39:52;;;;;;;4.37;2.20;;;6.70;96.90;;;;;;6091254;23;20693;-72
2023/04/15 01:42:18;;;;;;;6.13;2.50;;;6.70;96.50;;;;;;6093511;23;20179;-72
2023/04/15 01:44:45;;;;;;;4.90;2.27;;;6.70;96.60;;;;;;6092981;23;20226;-72
2023/04/15 01:47:11;;;;;;;5.43;2.60;;;6.70;96.70;;;;;;6091701;23;20174;-71
2023/04/15 01:49:37;;;;;;;5.00;2.63;;;6.70;96.70;;;;;;6115788;23;20383;-72
2023/04/15 01:52:02;;;;;;;3.50;2.33;;;6.70;96.70;;;;;;6126181;23;20399;-74
2023/04/15 01:54:28;;;;;;;5.90;3.20;;;6.70;96.70;;;;;;6114589;23;20206;-71
2023/04/15 01:56:55;;;;;;;5.20;2.50;;;6.70;96.80;;;;;;6118019;23;20144;-71
2023/04/15 01:59:21;;;;;;;5.27;2.73;;;6.70;96.90;;;;;;6090074;23;20388;-72
2023/04/15 02:01:47;;;;;;;6.83;3.57;;;6.60;97.10;;;;;;6115235;23;20473;-71
2023/04/15 02:04:15;;;;;;;8.77;4.47;;;6.60;97.40;;;;;;6121348;23;20431;-72
2023/04/15 02:06:44;;;;;;;5.70;3.33;;;6.60;97.80;;;;;;6140195;23;20132;-71
2023/04/15 02:09:11;;;;;;;6.60;3.53;;;6.60;97.90;;;;;;6142159;23;20610;-71
2023/04/15 02:11:38;;;;;;;6.20;3.23;;;6.60;97.90;;;;;;6103960;23;20395;-72
2023/04/15 02:14:04;;;;;;;6.20;3.93;;;6.60;98.00;;;;;;6140993;23;20852;-70
2023/04/15 02:16:30;;;;;;;4.50;2.60;;;6.70;98.40;;;;;;6142636;23;20382;-70
2023/04/15 02:18:56;;;;;;;6.70;3.60;;;6.60;97.70;;;;;;6145625;23;20387;-72
2023/04/15 02:21:22;;;;;;;5.60;3.33;;;6.60;97.80;;;;;;6113557;23;20451;-72
2023/04/15 02:23:48;;;;;;;4.23;3.27;;;6.60;97.80;;;;;;6124125;23;20171;-71
2023/04/15 02:26:13;;;;;;;4.67;2.93;;;6.50;98.00;;;;;;6138923;23;20137;-71
2023/04/15 02:28:39;;;;;;;4.47;2.60;;;6.50;98.20;;;;;;6139044;23;20132;-71
2023/04/15 02:31:06;;;;;;;6.30;3.10;;;6.50;98.40;;;;;;6138141;23;20132;-71
2023/04/15 02:33:31;;;;;;;3.97;2.53;;;6.40;98.70;;;;;;6114583;23;20140;-70
2023/04/15 02:35:59;;;;;;;4.50;2.50;;;6.40;98.70;;;;;;6105560;23;20475;-71
2023/04/15 02:38:25;;;;;;;3.07;2.47;;;6.40;99.00;;;;;;6104361;23;20450;-71
2023/04/15 02:40:50;;;;;;;7.23;2.90;;;6.30;99.40;;;;;;6104117;23;20449;-71
2023/04/15 02:43:16;;;;;;;5.90;2.80;;;6.30;99.50;;;;;;6140932;23;20179;-71
2023/04/15 02:45:42;;;;;;;3.80;2.20;;;6.20;99.90;;;;;;6139638;23;20151;-71
2023/04/15 02:48:08;;;;;;;3.77;2.30;;;6.20;99.90;;;;;;6110403;23;20160;-71
2023/04/15 02:50:36;;;;;;;4.30;2.80;;;6.20;99.90;;;;;;6113185;23;20473;-71
2023/04/15 02:53:02;;;;;;;5.13;2.33;;;6.10;99.90;;;;;;6089775;23;20407;-72
2023/04/15 02:55:28;;;;;;;4.83;2.80;;;6.10;99.90;;;;;;6111158;23;20399;-72
2023/04/15 02:57:54;;;;;;;7.17;2.70;;;6.10;99.90;;;;;;6112330;23;20446;-70
2023/04/15 03:00:20;;;;;;;4.27;2.83;;;6.10;99.90;;;;;;6112035;23;20462;-73
2023/04/15 03:02:48;;;;;;;4.43;2.40;;;6.10;99.90;;;;;;6112454;23;20434;-71
2023/04/15 03:05:14;;;;;;;3.87;2.80;;;6.10;99.90;;;;;;6132573;23;20380;-71
2023/04/15 03:07:46;;;;;;;4.40;2.73;;;6.10;99.90;;;;;;6129013;23;20376;-70
2023/04/15 03:10:12;;;;;;;4.20;2.80;;;6.00;99.90;;;;;;6139990;23;20426;-71
2023/04/15 03:12:39;;;;;;;6.97;2.13;;;5.90;99.90;;;;;;6105214;23;20179;-73
2023/04/15 03:15:05;;;;;;;4.33;2.67;;;5.90;99.90;;;;;;6104106;23;20368;-71
2023/04/15 03:17:36;;;;;;;5.17;2.70;;;5.80;99.90;;;;;;6104279;23;20910;-71
2023/04/15 03:20:03;;;;;;;5.00;3.20;;;5.80;99.90;;;;;;6140951;23;20368;-69
2023/04/15 03:22:30;;;;;;;4.13;3.10;;;5.80;99.90;;;;;;6142278;23;20712;-71
2023/04/15 03:24:56;;;;;;;4.70;3.30;;;5.80;99.90;;;;;;6104658;23;20418;-70
2023/04/15 03:27:22;;;;;;;5.27;2.97;;;5.80;99.90;;;;;;6139479;23;20376;-70
2023/04/15 03:29:48;;;;;;;3.70;2.80;;;5.80;99.90;;;;;;6104016;23;20144;-71
2023/04/15 03:32:16;;;;;;;3.80;2.13;;;5.70;99.90;;;;;;6103619;23;20168;-72
2023/04/15 03:34:42;;;;;;;2.63;2.07;;;5.70;99.90;;;;;;6105963;23;20418;-71
2023/04/15 03:37:08;;;;;;;5.67;2.50;;;5.70;99.90;;;;;;6144418;23;20364;-71
2023/04/15 03:39:34;;;;;;;5.53;3.20;;;5.70;99.90;;;;;;6139850;23;20167;-72
2023/04/15 03:42:00;;;;;;;5.60;3.30;;;5.60;99.90;;;;;;6139379;23;20448;-71
2023/04/15 03:44:26;;;;;;;5.20;3.47;;;5.70;99.90;;;;;;6139838;23;20526;-71
2023/04/15 03:46:52;;;;;;;8.27;3.70;;;5.70;99.90;;;;;;6139281;23;20375;-70
2023/04/15 03:49:18;;;;;;;3.70;3.03;;;5.70;99.90;;;;;;6104105;23;20195;-71
2023/04/15 03:51:44;;;;;;;8.53;3.70;;;5.70;99.90;;;;;;6139399;23;20399;-71
2023/04/15 03:54:11;;;;;;;6.73;3.43;;;5.80;99.90;;;;;;6139942;23;20383;-72
2023/04/15 03:56:37;;;;;;;8.20;3.30;;;5.80;99.90;;;;;;6140510;23;20738;-71
2023/04/15 03:59:03;;;;;;;3.70;2.80;;;5.80;99.90;;;;;;6115338;23;20380;-71
2023/04/15 04:01:28;;;;;;;3.77;2.97;;;5.80;99.90;;;;;;6141576;23;20399;-71
2023/04/15 04:03:54;;;;;;;5.90;3.00;;;5.80;99.90;;;;;;6136754;23;20187;-71
2023/04/15 04:06:19;;;;;;;3.23;2.60;;;5.70;99.90;;;;;;6139892;23;20140;-70
2023/04/15 04:08:45;;;;;;;7.70;3.57;;;5.70;99.90;;;;;;6139856;23;20147;-70
2023/04/15 04:11:10;;;;;;;3.60;2.50;;;5.70;99.90;;;;;;6139174;23;20136;-71
2023/04/15 04:13:36;;;;;;;5.90;2.63;;;5.60;99.90;;;;;;6138983;23;20286;-71
2023/04/15 04:16:03;;;;;;;9.67;3.60;;;5.60;99.90;;;;;;6139439;23;20144;-72
2023/04/15 04:18:30;;;;;;;3.23;2.20;;;5.60;99.90;;;;;;6139091;23;20143;-70
2023/04/15 04:20:55;;;;;;;3.30;2.80;;;5.50;99.90;;;;;;6139479;23;20403;-72
2023/04/15 04:23:21;;;;;;;7.10;3.90;;;5.50;99.90;;;;;;6103537;23;20454;-71
2023/04/15 04:25:47;;;;;;;5.50;3.23;;;5.40;99.90;;;;;;6139091;23;20134;-70
2023/04/15 04:28:13;;;;;;;4.27;2.70;;;5.40;99.90;;;;;;6139391;23;20136;-71
2023/04/15 04:30:39;;;;;;;4.93;2.80;;;5.40;99.90;;;;;;6139290;23;20207;-70
2023/04/15 04:33:05;;;;;;;3.70;2.23;;;5.40;99.90;;;;;;6139939;23;20203;-73
2023/04/15 04:35:33;;;;;;;12.73;3.60;;;5.40;99.90;;;;;;6129995;23;20590;-71
2023/04/15 04:37:59;;;;;;;4.00;2.73;;;5.40;99.90;;;;;;6140031;23;20765;-71
2023/04/15 04:40:26;;;;;;;5.90;3.20;;;5.40;99.90;;;;;;6139813;23;20457;-70
2023/04/15 04:42:52;;;;;;;6.77;3.43;;;5.40;99.90;;;;;;6141844;23;20820;-73
2023/04/15 04:45:18;;;;;;;7.57;3.40;;;5.30;99.90;;;;;;6060083;23;20615;-72
2023/04/15 04:47:44;;;;;;;5.67;3.20;;;5.30;99.90;;;;;;6139639;23;20364;-70
2023/04/15 04:50:10;;;;;;;4.37;3.37;;;5.40;99.90;;;;;;6140089;23;20190;-71
2023/04/15 04:52:36;;;;;;;2.70;1.93;;;5.30;99.90;;;;;;6139446;23;20251;-72
2023/04/15 04:55:02;;;;;;;5.80;1.90;;;5.30;99.90;;;;;;6141131;23;20683;-72
2023/04/15 04:57:27;;;;;;;2.90;1.83;;;5.30;99.90;;;;;;6140103;23;20371;-72
2023/04/15 04:59:53;;;;;;;4.57;2.00;;;5.30;99.90;;;;;;6139302;23;20207;-71
2023/04/15 05:02:18;;;;;;;2.63;1.93;;;5.30;99.90;;;;;;6139168;23;20164;-71
2023/04/15 05:04:44;;;;;;;5.30;2.37;;;5.30;99.90;;;;;;6134000;23;20433;-71
2023/04/15 05:07:09;;;;;;;5.43;1.70;;;5.30;99.90;;;;;;6140181;23;20137;-72
2023/04/15 05:09:35;;;;;;;2.63;1.63;;;5.30;99.90;;;;;;6139863;23;20136;-73
2023/04/15 05:12:02;;;;;;;4.20;1.57;;;5.30;99.90;;;;;;6139755;23;20175;-71
2023/04/15 05:14:28;;;;;;;2.00;1.73;;;5.30;99.90;;;;;;6142855;23;20258;-71
2023/04/15 05:16:54;;;;;;;3.57;1.80;;;5.30;99.90;;;;;;6139910;23;20857;-72
2023/04/15 05:19:19;;;;;;;3.40;1.73;;;5.50;99.90;;;;;;6139189;23;20206;-71
2023/04/15 05:21:45;;;;;;;1.67;1.40;;;5.50;99.90;;;;;;6104518;23;20203;-71
2023/04/15 05:24:10;;;;;;;3.77;1.97;;;5.50;99.90;;;;;;6140129;23;20164;-71
2023/04/15 05:26:36;;;;;;;3.17;2.10;;;5.60;99.90;;;;;;6139873;23;20136;-70
2023/04/15 05:29:01;;;;;;;4.70;3.50;;;5.70;99.90;;;;;;6113876;23;20136;-71
2023/04/15 05:31:27;;;;;;;5.80;2.80;;;5.80;99.90;;;;;;6139535;23;20494;-71
2023/04/15 05:33:53;;;;;;;10.17;4.00;;;5.90;99.90;;;;;;6104769;23;20518;-71
2023/04/15 05:36:18;;;;;;;5.53;2.50;;;6.00;99.90;;;;;;6104385;23;20427;-71
2023/04/15 05:38:44;;;;;;;4.50;2.63;;;6.10;99.90;;;;;;6114327;23;20207;-71
2023/04/15 05:41:09;;;;;;;7.30;4.00;;;6.20;99.90;;;;;;6139512;23;20144;-70
2023/04/15 05:43:35;;;;;;;5.67;3.80;;;6.40;99.90;;;;;;6139222;23;20164;-70
2023/04/15 05:46:00;;;;;;;8.33;4.07;;;6.50;99.90;;;;;;6139693;23;20160;-70
2023/04/15 05:48:26;;;;;;;5.20;4.17;;;6.70;99.90;;;;;;6141248;23;20140;-70
2023/04/15 05:50:52;;;;;;;10.33;6.10;;;6.80;99.90;;;;;;6145283;23;20132;-72
2023/04/15 05:53:19;;;;;;;7.80;4.87;;;7.00;99.90;;;;;;6145950;23;20168;-72
2023/04/15 05:55:45;;;;;;;10.17;6.13;;;7.10;99.90;;;;;;6118640;23;20216;-70
2023/04/15 05:58:11;;;;;;;9.87;4.80;;;7.30;99.90;;;;;;6093181;23;20379;-71
2023/04/15 06:00:38;;;;;;;7.77;4.73;;;7.40;99.90;;;;;;6118840;23;20148;-73
2023/04/15 06:03:05;;;;;;;11.00;5.70;;;7.50;99.90;;;;;;6117017;23;20427;-73
2023/04/15 06:05:30;;;;;;;6.33;4.30;;;7.70;99.30;;;;;;6115180;23;20767;-70
2023/04/15 06:07:56;;;;;;;10.80;7.00;;;7.90;98.90;;;;;;6115001;23;20380;-71
2023/04/15 06:10:22;;;;;;;10.30;5.83;;;8.00;97.00;;;;;;6146553;23;20140;-73
2023/04/15 06:12:48;;;;;;;8.53;5.67;;;8.10;95.80;;;;;;6109122;23;20432;-72
2023/04/15 06:15:15;;;;;;;9.17;5.90;;;8.20;96.10;;;;;;6026580;23;20158;-72
2023/04/15 06:17:44;;;;;;;13.23;6.40;;;8.20;94.70;;;;;;6028949;23;20870;-70
2023/04/15 06:20:10;;;;;;;7.53;5.20;;;8.30;95.00;;;;;;6037446;23;20890;-69
2023/04/15 06:22:37;;;;;;;7.87;5.47;;;8.40;94.80;;;;;;6039611;23;20429;-71
2023/04/15 06:25:06;;;;;;;7.53;4.70;;;8.50;94.20;;;;;;6028512;23;20438;-71
2023/04/15 06:27:32;;;;;;;23.23;6.73;;;8.60;93.80;;;;;;6032697;23;20425;-72
2023/04/15 06:29:59;;;;;;;9.33;5.57;;;8.60;92.50;;;;;;6061225;23;20390;-73
2023/04/15 06:32:25;;;;;;;14.13;7.47;;;8.70;92.00;;;;;;6034395;23;20198;-73
2023/04/15 06:34:50;;;;;;;7.97;5.53;;;8.70;90.90;;;;;;6008561;23;20704;-74
2023/04/15 06:37:16;;;;;;;13.30;6.20;;;8.70;91.20;;;;;;6033608;23;20479;-72
2023/04/15 06:39:43;;;;;;;12.73;6.40;;;8.70;91.50;;;;;;6008397;23;20154;-73
2023/04/15 06:42:10;;;;;;;13.73;6.80;;;8.80;90.80;;;;;;5989085;23;20169;-74
2023/04/15 06:44:36;;;;;;;9.50;5.63;;;8.80;90.90;;;;;;6012336;23;20436;-74
2023/04/15 06:47:03;;;;;;;5.83;5.03;;;9.00;90.80;;;;;;6078233;23;20412;-73
2023/04/15 06:49:30;;;;;;;12.47;7.00;;;9.10;90.30;;;;;;6089773;23;20407;-73
2023/04/15 06:51:56;;;;;;;6.57;5.00;;;9.30;88.90;;;;;;6042282;23;20742;-73
2023/04/15 06:54:22;;;;;;;8.73;5.63;;;9.40;87.50;;;;;;6114538;23;20408;-73
2023/04/15 06:56:50;;;;;;;8.40;4.90;;;9.50;81.20;;;;;;6115869;23;20140;-73
2023/04/15 06:59:17;;;;;;;10.03;5.67;;;9.70;81.50;;;;;;6068197;23;20384;-74
2023/04/15 07:01:44;;;;;;;8.23;5.17;;;9.70;77.10;;;;;;6114508;23;20443;-71
2023/04/15 07:04:11;;;;;;;11.73;6.03;;;9.70;76.70;;;;;;6082709;23;20433;-71
2023/04/15 07:06:36;;;;;;;8.70;5.50;;;9.80;77.50;;;;;;6054674;23;20445;-74
2023/04/15 07:09:03;;;;;;;6.80;5.27;;;9.80;77.10;;;;;;6035086;23;20853;-73
2023/04/15 07:11:29;;;;;;;8.97;5.10;;;10.00;76.10;;;;;;6054388;23;20243;-71
2023/04/15 07:13:57;;;;;;;6.47;4.70;;;10.20;75.10;;;;;;6080771;23;20823;-74
2023/04/15 07:16:23;;;;;;;5.60;4.87;;;10.30;72.00;;;;;;6065273;23;20377;-73
2023/04/15 07:18:48;;;;;;;9.60;6.87;;;10.40;72.10;;;;;;6057027;23;20401;-73
2023/04/15 07:21:14;;;;;;;7.67;6.33;;;10.70;69.80;;;;;;6078425;23;20220;-72
2023/04/15 07:23:41;;;;;;;7.70;5.60;;;10.80;68.10;;;;;;6057924;23;20177;-74
2023/04/15 07:26:07;;;;;;;6.20;5.60;;;10.90;69.00;;;;;;6080562;23;20182;-72
2023/04/15 07:28:33;;;;;;;8.20;5.87;;;11.10;68.90;;;;;;6055194;23;20425;-72
2023/04/15 07:30:59;;;;;;;7.80;6.00;;;11.20;68.70;;;;;;6080798;23;20664;-74
2023/04/15 07:33:25;;;;;;;7.60;6.77;;;11.40;68.50;;;;;;6090499;23;20213;-75
2023/04/15 07:35:51;;;;;;;9.20;5.70;;;11.70;67.20;;;;;;6124758;23;20420;-73
2023/04/15 07:38:18;;;;;;;6.67;5.10;;;11.80;65.70;;;;;;6061409;23;20148;-73
2023/04/15 07:40:43;;;;;;;12.50;8.00;;;12.00;65.40;;;;;;6088423;23;20160;-73
2023/04/15 07:43:09;;;;;;;9.67;6.37;;;12.20;63.10;;;;;;6112135;23;20465;-71
2023/04/15 07:45:35;;;;;;;7.83;6.03;;;12.40;62.50;;;;;;6124832;23;20139;-74
2023/04/15 07:48:01;;;;;;;10.83;6.93;;;12.60;61.00;;;;;;6124519;23;20388;-71
2023/04/15 07:50:28;;;;;;;11.03;6.57;;;12.80;58.30;;;;;;6111162;23;20140;-73
2023/04/15 07:52:53;;;;;;;8.63;7.53;;;12.80;58.60;;;;;;6124047;23;20407;-73
2023/04/15 07:55:21;;;;;;;6.77;6.07;;;12.90;58.20;;;;;;6064683;23;20372;-72
2023/04/15 07:57:48;;;;;;;6.70;6.00;;;12.80;58.60;;;;;;6121267;23;20137;-74
2023/04/15 08:00:15;;;;;;;8.40;6.70;;;12.80;59.00;;;;;;6120607;23;20458;-73
2023/04/15 08:02:41;;;;;;;8.60;6.80;;;12.80;59.00;;;;;;6122349;23;20388;-71
2023/04/15 08:05:08;;;;;;;6.57;5.70;;;12.90;58.30;;;;;;6112471;23;20405;-75
2023/04/15 08:07:35;;;;;;;6.53;5.93;;;12.90;59.00;;;;;;6065623;23;20381;-72
2023/04/15 08:10:00;;;;;;;11.57;6.70;;;13.00;59.00;;;;;;6108569;23;20585;-72
2023/04/15 08:12:27;;;;;;;8.60;6.53;;;13.20;58.70;;;;;;6088684;23;20408;-72
2023/04/15 08:14:53;;;;;;;8.40;5.30;;;13.50;57.80;;;;;;6115610;23;20533;-72
2023/04/15 08:17:19;;;;;;;7.07;5.20;;;13.40;57.80;;;;;;6127435;23;20368;-71
2023/04/15 08:19:45;;;;;;;7.10;6.00;;;13.40;58.00;;;;;;6153266;23;20379;-72
2023/04/15 08:22:11;;;;;;;5.67;4.70;;;13.40;57.70;;;;;;6092902;23;20176;-71
2023/04/15 08:24:37;;;;;;;7.80;4.33;;;13.50;57.40;;;;;;6114542;23;20201;-72
2023/04/15 08:27:04;;;;;;;4.40;2.87;;;13.70;54.50;;;;;;6149106;23;20364;-73
2023/04/15 08:29:31;;;;;;;4.47;2.73;;;13.80;53.10;;;;;;6115799;23;20702;-71
2023/04/15 08:31:58;;;;;;;5.60;3.43;;;14.00;50.70;;;;;;6090490;23;20440;-71
2023/04/15 08:34:24;;;;;;;4.33;2.53;;;14.10;50.30;;;;;;6091802;23;20518;-73
2023/04/15 08:36:50;;;;;;;5.57;3.20;;;14.20;50.00;;;;;;6088596;23;20674;-72
2023/04/15 08:39:16;;;;;;;5.43;2.63;;;14.30;49.20;;;;;;6137779;23;20143;-71
2023/04/15 08:41:59;;;;;;;5.33;3.37;;;14.30;49.40;;;;;;6114959;23;20411;-70
2023/04/15 08:44:26;;;;;;;2.73;1.90;;;14.50;47.90;;;;;;6151367;23;20415;-72
2023/04/15 08:46:55;;;;;;;4.00;2.33;;;14.40;47.60;;;;;;6152479;23;20374;-72
2023/04/15 08:49:25;;;;;;;4.60;2.70;;;14.30;47.80;;;;;;6125180;23;20681;-72
2023/04/15 08:51:51;;;;;;;3.70;2.87;;;14.30;47.90;;;;;;6116900;23;20407;-73
2023/04/15 08:54:17;;;;;;;7.00;1.80;;;14.30;47.80;;;;;;6117039;23;20395;-74
2023/04/15 08:56:44;;;;;;;2.53;2.30;;;14.20;47.80;;;;;;6091340;23;20387;-70
2023/04/15 08:59:10;;;;;;;3.40;2.40;;;14.10;47.20;;;;;;6150638;23;20751;-74
2023/04/15 09:01:37;;;;;;;3.13;2.27;;;14.00;47.60;;;;;;6092017;23;20518;-73
2023/04/15 09:04:06;;;;;;;4.83;3.13;;;14.00;47.90;;;;;;6118021;23;20494;-73
2023/04/15 09:06:33;;;;;;;2.70;2.10;;;14.10;47.80;;;;;;6120202;23;20383;-74
2023/04/15 09:08:58;;;;;;;4.30;2.47;;;14.00;48.20;;;;;;6127979;23;20437;-74
2023/04/15 09:11:24;;;;;;;5.40;3.40;;;14.20;48.40;;;;;;6116933;23;20407;-73
2023/04/15 09:13:50;;;;;;;3.30;2.00;;;14.30;48.00;;;;;;6112771;23;20200;-73
2023/04/15 09:16:16;;;;;;;4.30;2.90;;;14.40;47.90;;;;;;6123481;23;20170;-72
2023/04/15 09:18:41;;;;;;;3.53;2.43;;;14.50;47.20;;;;;;6111810;23;20411;-75
2023/04/15 09:21:13;;;;;;;3.37;2.47;;;14.40;47.10;;;;;;6111267;23;20149;-72
2023/04/15 09:23:52;;;;;;;3.00;2.50;;;14.60;47.00;;;;;;6097474;23;20403;-72
2023/04/15 09:26:18;;;;;;;4.60;2.30;;;14.80;46.50;;;;;;6064687;23;20392;-73
2023/04/15 09:28:43;;;;;;;4.30;2.43;;;14.70;46.40;;;;;;6091852;23;20466;-75
2023/04/15 09:31:09;;;;;;;3.13;2.70;;;14.70;46.70;;;;;;6091737;23;20152;-73
2023/04/15 09:33:52;;;;;;;3.80;2.90;;;14.80;46.80;;;;;;6089479;23;20217;-74
2023/04/15 09:36:18;;;;;;;4.00;2.60;;;14.60;47.00;;;;;;6097596;23;20380;-73
2023/04/15 09:38:57;;;;;;;5.23;2.50;;;14.70;47.20;;;;;;6086636;23;20380;-73
2023/04/15 09:41:23;;;;;;;3.10;2.60;;;14.70;47.40;;;;;;6110914;23;20177;-72
2023/04/15 09:43:49;;;;;;;3.63;2.77;;;14.70;47.60;;;;;;6125576;23;20502;-72
2023/04/15 09:46:15;;;;;;;3.43;2.60;;;14.70;48.00;;;;;;6114009;23;20383;-74
2023/04/15 09:48:41;;;;;;;3.87;2.43;;;14.70;48.20;;;;;;6123625;23;20376;-76
2023/04/15 09:51:07;;;;;;;3.90;2.30;;;14.70;48.30;;;;;;6064164;23;20144;-74
2023/04/15 09:53:35;;;;;;;3.10;2.57;;;14.70;48.20;;;;;;6091053;23;20162;-74
2023/04/15 09:56:01;;;;;;;6.10;3.03;;;14.50;48.50;;;;;;6123799;23;20235;-72
2023/04/15 09:58:28;;;;;;;6.07;2.97;;;14.50;48.50;;;;;;6125372;23;20373;-72
2023/04/15 10:00:58;;;;;;;4.03;3.10;;;14.50;48.30;;;;;;6067726;23;20390;-75
2023/04/15 10:03:26;;;;;;;3.40;2.50;;;14.60;47.80;;;;;;6047036;23;20424;-77
2023/04/15 10:05:55;;;;;;;3.10;2.80;;;14.40;48.30;;;;;;6116696;23;20445;-74
2023/04/15 10:08:23;;;;;;;6.27;3.40;;;14.40;48.70;;;;;;6067382;23;20388;-73
2023/04/15 10:10:51;;;;;;;4.43;3.30;;;14.40;48.90;;;;;;6116135;23;20383;-74
2023/04/15 10:13:21;;;;;;;4.67;3.77;;;14.50;48.40;;;;;;6090354;23;20497;-74
2023/04/15 10:16:10;;;;;;;4.40;3.17;;;14.60;48.50;;;;;;6070317;23;20458;-74
2023/04/15 10:18:42;;;;;;;5.03;3.43;;;14.50;49.70;;;;;;6125403;23;20426;-72
2023/04/15 10:21:09;;;;;;;5.10;3.80;;;14.40;49.70;;;;;;6124986;23;20371;-72
2023/04/15 10:23:36;;;;;;;5.87;3.53;;;14.50;50.00;;;;;;6093519;23;20453;-73
2023/04/15 10:26:03;;;;;;;4.90;3.70;;;14.60;50.00;;;;;;6117013;23;20508;-72
2023/04/15 10:28:30;;;;;;;5.90;4.00;;;14.60;50.00;;;;;;6117496;23;20384;-75
2023/04/15 10:30:58;;;;;;;4.40;3.50;;;14.60;50.10;;;;;;6129379;23;20373;-74
2023/04/15 10:33:25;;;;;;;4.27;3.80;;;14.60;50.30;;;;;;6092564;23;20268;-73
2023/04/15 10:35:54;;;;;;;5.20;4.17;;;14.70;50.10;;;;;;6094710;23;20378;-74
2023/04/15 10:38:37;;;;;;;7.83;4.20;;;14.90;50.00;;;;;;6090815;23;20388;-73
2023/04/15 10:41:34;;;;;;;4.33;3.80;;;15.00;50.20;;;;;;6112708;23;20459;-72
2023/04/15 10:44:04;;;;;;;5.77;4.90;;;15.10;50.00;;;;;;6020583;23;20430;-73
2023/04/15 10:46:41;;;;;;;4.90;3.50;;;14.90;49.70;;;;;;6032835;23;20397;-75
2023/04/15 10:49:27;;;;;;;3.90;3.43;;;14.60;50.10;;;;;;6032776;23;20390;-71
2023/04/15 10:51:58;;;;;;;4.50;3.43;;;14.60;50.20;;;;;;6035103;23;20408;-75
2023/04/15 10:54:23;;;;;;;4.60;3.70;;;14.60;50.60;;;;;;6032730;23;20447;-74
2023/04/15 10:57:08;;;;;;;3.83;3.43;;;14.80;50.80;;;;;;6067226;23;20371;-74
2023/04/15 10:59:58;;;;;;;4.67;3.07;;;15.10;50.10;;;;;;6033686;23;20186;-73
2023/04/15 11:02:46;;;;;;;4.33;2.70;;;15.20;49.60;;;;;;6010558;23;20409;-73
2023/04/15 11:05:14;;;;;;;4.00;3.13;;;15.40;48.30;;;;;;6045241;23;20723;-74
2023/04/15 11:07:47;;;;;;;3.83;2.77;;;15.60;48.30;;;;;;6034783;23;20414;-75
2023/04/15 11:10:12;;;;;;;3.27;2.77;;;15.80;47.20;;;;;;6031139;23;20527;-74
2023/04/15 11:12:40;;;;;;;3.37;2.97;;;15.70;47.80;;;;;;6034476;23;20426;-72
2023/04/15 11:15:32;;;;;;;5.80;4.13;;;15.80;48.00;;;;;;6055051;23;20163;-74
2023/04/15 11:18:07;;;;;;;4.93;3.77;;;15.80;48.10;;;;;;6128849;23;20376;-74
2023/04/15 11:20:33;;;;;;;3.60;3.30;;;15.80;48.30;;;;;;6102835;23;20436;-74
2023/04/15 11:22:59;;;;;;;5.60;3.83;;;15.70;48.70;;;;;;6091443;23;20408;-72
2023/04/15 11:25:30;;;;;;;3.47;3.17;;;15.60;48.70;;;;;;6092686;23;20381;-74
2023/04/15 11:27:57;;;;;;;5.67;3.40;;;15.50;48.50;;;;;;6093800;23;20806;-75
2023/04/15 11:30:24;;;;;;;3.10;2.80;;;15.30;48.80;;;;;;6093231;23;20384;-74
2023/04/15 11:33:05;;;;;;;7.67;4.40;;;15.10;49.50;;;;;;6093040;23;20467;-74
2023/04/15 11:35:31;;;;;;;4.63;3.73;;;15.00;49.50;;;;;;6068774;23;20420;-73
2023/04/15 11:37:57;;;;;;;2.70;2.50;;;15.10;49.90;;;;;;6124855;23;20375;-74
2023/04/15 11:40:26;;;;;;;6.10;4.23;;;14.90;50.40;;;;;;6092603;23;20638;-75
2023/04/15 11:43:15;;;;;;;4.77;3.43;;;15.10;50.40;;;;;;6047172;23;20388;-75
2023/04/15 11:46:01;;;;;;;4.60;3.90;;;15.20;49.90;;;;;;6092672;23;20628;-74
2023/04/15 11:48:29;;;;;;;3.90;3.03;;;15.50;49.90;;;;;;6094798;23;20384;-74
2023/04/15 11:51:04;;;;;;;4.00;3.27;;;15.60;49.70;;;;;;6071504;23;20425;-74
2023/04/15 11:53:39;;;;;;;4.40;3.40;;;15.60;49.60;;;;;;6072000;23;20403;-74
2023/04/15 11:56:15;;;;;;;4.37;3.00;;;15.70;49.60;;;;;;6119310;23;20405;-74
2023/04/15 11:58:42;;;;;;;5.07;4.10;;;15.80;49.70;;;;;;6118824;23;20435;-74
2023/04/15 12:01:29;;;;;;;9.13;3.80;;;15.80;49.80;;;;;;6095970;23;20372;-74
2023/04/15 12:03:58;;;;;;;3.70;3.40;;;15.70;49.90;;;;;;6122680;23;20481;-76
2023/04/15 12:06:33;;;;;;;5.17;4.03;;;15.60;50.40;;;;;;6098228;23;20357;-74
2023/04/15 12:09:06;;;;;;;4.67;4.30;;;15.50;50.60;;;;;;6099712;23;20381;-74
2023/04/15 12:11:46;;;;;;;4.60;4.20;;;15.30;51.30;;;;;;6117664;23;20436;-74
2023/04/15 12:14:14;;;;;;;4.43;4.13;;;15.20;51.80;;;;;;6115642;23;20531;-74
2023/04/15 12:16:43;;;;;;;5.20;4.70;;;15.30;51.60;;;;;;6158992;23;20414;-75
2023/04/15 12:19:12;;;;;;;5.30;4.80;;;15.30;51.60;;;;;;6125750;23;20387;-75
2023/04/15 12:21:43;;;;;;;5.83;5.23;;;15.30;51.40;;;;;;6096708;23;20399;-74
2023/04/15 12:24:11;;;;;;;6.30;5.80;;;15.30;51.20;;;;;;6120374;23;20458;-75
2023/04/15 12:27:00;;;;;;;7.50;5.50;;;15.10;51.80;;;;;;6075468;23;20424;-74
2023/04/15 12:29:27;;;;;;;5.50;5.00;;;14.80;52.70;;;;;;6097068;23;20384;-74
2023/04/15 12:31:57;;;;;;;6.97;6.27;;;14.50;53.00;;;;;;6062884;23;20413;-74
2023/04/15 12:34:31;;;;;;;6.67;5.63;;;14.30;53.90;;;;;;6039031;23;20401;-74
2023/04/15 12:37:00;;;;;;;5.43;5.00;;;14.30;54.10;;;;;;6064742;23;20401;-74
2023/04/15 12:39:29;;;;;;;5.40;4.90;;;14.10;54.40;;;;;;6070726;23;20397;-76
2023/04/15 12:41:55;;;;;;;5.40;4.90;;;14.00;54.80;;;;;;6060010;23;20406;-75
2023/04/15 12:44:22;;;;;;;5.50;5.00;;;13.90;55.10;;;;;;6036338;23;20443;-75
2023/04/15 12:46:52;;;;;;;5.97;5.40;;;13.90;55.50;;;;;;6071728;23;20380;-76
2023/04/15 12:49:19;;;;;;;6.93;6.33;;;14.00;56.00;;;;;;6070773;23;20385;-75
2023/04/15 12:51:49;;;;;;;6.23;5.63;;;14.00;55.80;;;;;;6058966;23;20407;-75
2023/04/15 12:54:16;;;;;;;6.63;6.03;;;14.10;56.00;;;;;;6073805;23;20381;-75
2023/04/15 12:56:51;;;;;;;5.60;5.03;;;13.90;56.50;;;;;;6038585;23;20432;-77